Waar ligt Aldeia avieira de Barreira da Bica in Portugal?

 

Aldeia avieira de Barreira da Bica is gevestigd in de regio Santarem in Portugal!

Zoek de plaatsnaam:

Aldeia do Capitão Piarru, Alder Creek Campground, Aldeia Necungas, Aldebeek, Aldeia Cajamba

Hier ziet u waar Aldeia avieira de Barreira da Bica op de kaart ligt.
Voor een indruk van hoe het er nu buiten uitziet staan onderaan wat plaatjes van de omgeving vanuit online web camera's.
U ziet ook de afstanden tot de belangrijkste plaatsen in de regio en tot plaatsen in de rest van Portugal.

Alle plaatsen in de wereld die heten.


Waar ligt Aldeia avieira de Barreira da Bica op de kaart?




Webcams vlakbij Aldeia avieira de Barreira da Bica

Vasco Carão › South: Garrocheira, Benavente − Airport.


Vasco Carão › South: Garrocheira, Benavente − Airport - Overdag
Recent
Vasco Carão › South: Garrocheira, Benavente − Airport - Recent

Benavente › North-East: AIrport, METAR: BENAV 180005Z 36004KT 17/14 Q1015.


Benavente › North-East: AIrport, METAR: BENAV 180005Z 36004KT 17/14 Q1015 - Overdag
Recent
Benavente › North-East: AIrport, METAR: BENAV 180005Z 36004KT 17/14 Q1015 - Recent

Abrantes › North-West: › North-West: Zona Alta (Torre).


Abrantes › North-West: › North-West: Zona Alta (Torre) - Overdag
Recent
Abrantes › North-West: › North-West: Zona Alta (Torre) - Recent

Webcams provided by webcams.travel


Afstanden

Waar ligt Aldeia avieira de Barreira da Bica ten opzichte van andere plaatsen?

Top 10 plaatsen in Santarem en afstand vanaf Aldeia avieira de Barreira da Bica.

Plaats#Inwonerskmmijl
Santarém12938585
Entroncamento2198872415
Tomar3191683924
Torres Novas4145262314
Samora Correia5141544528
Abrantes6136464025
Ourém7127293924
Rio Maior8120642717
Fátima9117983723
Almeirim1011556106

Top 10 plaatsen in Portugal en afstand vanaf Aldeia avieira de Barreira da Bica.

Plaats # Inwonerskmmijl
Lisbon15177987748
Porto2249630206128
Amadora31788568050
Braga4121393251156
Setúbal51171098955
Coimbra610658010364
Queluz71033988050
Funchal8980411049652
Vila Nova de Gaia970810204127
Loures10662307144



Reisadvies Portugal

Advies en informatie van het ministerie van Buitenlandse Zaken over (zaken)reizen en veiligheidsrisico’s in Portugal via rijksoverheid.nl.

Met een reisadvies kunnen Nederlandse reizigers zich beter voorbereiden op veiligheidsrisico’s tijdens een buitenlands vakantie of verblijf. Wees geinformerd over de risico's op ontvoeringen, gewapende overvallen, bomaanslagen, natuurrampen of oorlogsgeweld. Buitenlandse Zaken vermeldt in een reisadvies bijvoorbeeld welke gebieden in Portugalo onveilig zijn, roept reizigers op tot waakzaamheid of ontraadt reizen.

Reisadvies Portugal



Reisinformatie Portugal

Informatie over residocumenten, aanvragen van een visa en de kosten hiervan. Contactinformatie van de ambassade in Portugal. Informatie over reisverzekeringen.

Reisinformatie Portugal

Info

Statistieken en Geografie

Portugal bestaat uit 15299 plaatsen in 20 regio's.

De regio Santarem bestaat uit 1174 plaatsen.

Waar ligt Aldeia avieira de Barreira da Bica in Portugal?